Time;durP1;ratioP1;P1;durP2;ratioP2;P2;SDS_P1;SDS_P2;PMS_P1;PMS_P2;Temp;Humidity;BMP_temperature;BMP_pressure;BME280_temperature;BME280_humidity;BME280_pressure;Samples;Min_cycle;Max_cycle;Signal;HPM_P1;HPM_P2
2023/09/17 00:00:59;;;;;;;4.10;2.92;;;25.40;55.10;;;;;;5087987;27;45344;-67
2023/09/17 00:03:27;;;;;;;3.92;2.33;;;25.40;55.10;;;;;;5087394;27;46630;-66
2023/09/17 00:05:54;;;;;;;4.00;3.20;;;25.40;55.10;;;;;;5087600;27;45368;-67
2023/09/17 00:08:21;;;;;;;5.15;3.00;;;25.40;55.10;;;;;;5087803;27;45295;-67
2023/09/17 00:10:49;;;;;;;3.10;2.70;;;25.40;55.20;;;;;;5088113;27;45404;-67
2023/09/17 00:13:16;;;;;;;3.97;2.88;;;25.40;55.30;;;;;;5087285;27;47541;-66
2023/09/17 00:15:42;;;;;;;3.05;2.63;;;25.40;55.20;;;;;;5087395;27;45399;-67
2023/09/17 00:18:09;;;;;;;3.33;2.70;;;25.40;55.20;;;;;;5087768;27;45250;-66
2023/09/17 00:20:37;;;;;;;3.58;2.50;;;25.40;55.20;;;;;;5087726;27;45323;-67
2023/09/17 00:23:05;;;;;;;2.75;2.45;;;25.40;55.10;;;;;;5087248;27;46606;-66
2023/09/17 00:25:32;;;;;;;3.60;2.58;;;25.40;55.20;;;;;;5087160;27;45313;-66
2023/09/17 00:27:59;;;;;;;3.35;2.58;;;25.40;55.20;;;;;;5087534;27;45450;-67
2023/09/17 00:30:26;;;;;;;4.10;2.70;;;25.40;55.20;;;;;;5087488;27;45311;-67
2023/09/17 00:32:52;;;;;;;6.85;2.60;;;25.30;55.20;;;;;;5086966;27;46652;-66
2023/09/17 00:35:19;;;;;;;3.67;2.33;;;25.30;55.20;;;;;;5087118;27;45352;-66
2023/09/17 00:37:47;;;;;;;6.55;2.40;;;25.30;55.20;;;;;;5087364;27;45303;-67
2023/09/17 00:40:14;;;;;;;3.03;2.70;;;25.30;55.20;;;;;;5087460;27;45391;-67
2023/09/17 00:42:41;;;;;;;2.78;2.40;;;25.30;55.20;;;;;;5086417;27;46375;-67
2023/09/17 00:45:09;;;;;;;3.35;2.42;;;25.30;55.20;;;;;;5086910;27;45173;-67
2023/09/17 00:47:35;;;;;;;2.50;2.30;;;25.20;55.20;;;;;;5087198;27;45247;-67
2023/09/17 00:50:02;;;;;;;4.13;3.13;;;25.20;55.80;;;;;;5087297;27;45351;-67
2023/09/17 00:52:29;;;;;;;3.47;2.75;;;25.20;55.10;;;;;;5086856;27;45557;-67
2023/09/17 00:54:58;;;;;;;2.78;2.50;;;25.20;55.10;;;;;;5086637;27;45337;-66
2023/09/17 00:57:25;;;;;;;2.60;2.40;;;25.20;55.10;;;;;;5086932;27;45469;-67
2023/09/17 00:59:52;;;;;;;2.88;2.58;;;25.20;55.10;;;;;;5087032;27;45387;-66
2023/09/17 01:02:20;;;;;;;3.22;2.95;;;25.10;55.10;;;;;;5086741;27;45413;-67
2023/09/17 01:04:49;;;;;;;2.40;2.20;;;25.10;55.00;;;;;;5086664;27;45312;-67
2023/09/17 01:07:16;;;;;;;3.08;2.35;;;25.10;55.00;;;;;;5086809;27;45334;-66
2023/09/17 01:09:43;;;;;;;3.38;2.20;;;25.10;55.00;;;;;;5086950;27;45397;-66
2023/09/17 01:12:11;;;;;;;2.45;2.00;;;25.10;55.00;;;;;;5086639;27;45322;-67
2023/09/17 01:14:38;;;;;;;4.07;2.45;;;25.10;55.00;;;;;;5086502;27;45327;-67
2023/09/17 01:17:06;;;;;;;2.53;2.33;;;25.10;55.00;;;;;;5086754;27;45402;-66
2023/09/17 01:19:33;;;;;;;2.17;1.98;;;25.10;54.90;;;;;;5086652;27;45414;-67
2023/09/17 01:22:03;;;;;;;2.85;2.35;;;25.10;55.50;;;;;;5086374;27;47523;-67
2023/09/17 01:24:40;;;;;;;4.05;2.28;;;25.10;54.90;;;;;;5086166;27;45400;-66
2023/09/17 01:27:08;;;;;;;2.60;2.40;;;25.10;54.90;;;;;;5086449;27;45319;-66
2023/09/17 01:29:37;;;;;;;2.80;2.00;;;25.00;54.80;;;;;;5086657;27;45399;-66
2023/09/17 01:32:04;;;;;;;2.78;2.20;;;25.00;54.80;;;;;;5086053;27;45302;-66
2023/09/17 01:34:31;;;;;;;2.78;2.58;;;25.00;54.80;;;;;;5086559;27;45380;-66
2023/09/17 01:36:59;;;;;;;3.00;2.40;;;25.00;54.80;;;;;;5086325;27;45241;-67
2023/09/17 01:39:27;;;;;;;3.08;2.50;;;25.00;54.90;;;;;;5086516;27;45212;-66
2023/09/17 01:41:54;;;;;;;2.22;2.03;;;25.00;54.90;;;;;;5085766;27;45457;-67
2023/09/17 01:44:24;;;;;;;2.60;2.30;;;25.00;54.90;;;;;;5086003;27;45367;-66
2023/09/17 01:46:50;;;;;;;3.30;2.40;;;25.00;54.90;;;;;;5086039;27;45368;-67
2023/09/17 01:49:17;;;;;;;3.25;2.17;;;24.90;54.80;;;;;;5086187;27;45312;-66
2023/09/17 01:51:44;;;;;;;2.60;2.40;;;24.90;54.80;;;;;;5085869;27;45387;-67
2023/09/17 01:54:11;;;;;;;2.33;2.13;;;24.90;54.80;;;;;;5085307;27;45399;-67
2023/09/17 01:56:38;;;;;;;2.85;2.30;;;24.90;54.80;;;;;;5086262;27;45397;-67
2023/09/17 01:59:06;;;;;;;3.13;2.50;;;24.90;54.80;;;;;;5086167;27;45268;-67
2023/09/17 02:01:34;;;;;;;2.50;2.30;;;24.90;54.80;;;;;;5085820;27;45241;-67
2023/09/17 02:04:01;;;;;;;2.33;2.13;;;24.90;54.80;;;;;;5085748;27;45307;-67
2023/09/17 02:06:28;;;;;;;2.55;2.25;;;24.90;54.80;;;;;;5085929;27;45264;-66
2023/09/17 02:08:55;;;;;;;2.00;1.90;;;24.90;54.70;;;;;;5086059;27;45276;-67
2023/09/17 02:11:22;;;;;;;2.30;2.10;;;24.80;54.70;;;;;;5085651;27;45734;-67
2023/09/17 02:13:49;;;;;;;2.13;1.92;;;24.80;54.70;;;;;;5085538;27;45331;-67
2023/09/17 02:16:15;;;;;;;2.30;2.10;;;24.80;54.60;;;;;;5085989;27;45465;-66
2023/09/17 02:18:44;;;;;;;2.65;2.30;;;24.80;54.60;;;;;;5085992;27;45332;-67
2023/09/17 02:21:11;;;;;;;2.10;1.90;;;24.80;54.60;;;;;;5085452;27;47623;-67
2023/09/17 02:23:37;;;;;;;1.98;1.88;;;24.80;54.60;;;;;;5085613;27;45368;-67
2023/09/17 02:26:04;;;;;;;3.25;2.20;;;24.80;54.60;;;;;;5085604;27;45229;-67
2023/09/17 02:28:31;;;;;;;2.30;2.10;;;24.80;54.60;;;;;;5086107;27;45501;-66
2023/09/17 02:30:59;;;;;;;2.50;2.10;;;24.80;54.60;;;;;;5085349;27;45370;-66
2023/09/17 02:33:26;;;;;;;2.40;2.20;;;24.80;54.60;;;;;;5085300;27;45253;-67
2023/09/17 02:35:54;;;;;;;2.90;2.10;;;24.80;54.60;;;;;;5085666;27;45256;-67
2023/09/17 02:38:21;;;;;;;3.13;2.35;;;24.80;54.50;;;;;;5085660;27;45424;-67
2023/09/17 02:40:48;;;;;;;2.22;2.03;;;24.70;54.50;;;;;;5085364;27;45370;-67
2023/09/17 02:43:15;;;;;;;2.95;2.35;;;24.70;54.50;;;;;;5085056;27;45344;-66
2023/09/17 02:45:41;;;;;;;2.38;2.10;;;24.70;54.50;;;;;;5085349;27;45170;-67
2023/09/17 02:48:08;;;;;;;2.58;2.17;;;24.70;54.50;;;;;;5085672;27;45422;-67
2023/09/17 02:50:35;;;;;;;2.15;1.95;;;24.70;54.50;;;;;;5085371;27;45292;-67
2023/09/17 02:53:04;;;;;;;2.42;2.10;;;24.70;54.50;;;;;;5085181;27;45420;-67
2023/09/17 02:55:30;;;;;;;2.85;1.83;;;24.70;54.50;;;;;;5085476;27;45324;-66
2023/09/17 02:57:57;;;;;;;2.33;2.13;;;24.70;54.50;;;;;;5085289;27;45505;-67
2023/09/17 03:00:24;;;;;;;2.22;2.03;;;24.70;54.50;;;;;;5085094;27;46447;-67
2023/09/17 03:02:54;;;;;;;2.22;2.03;;;24.70;54.50;;;;;;5084981;27;45355;-67
2023/09/17 03:05:21;;;;;;;2.33;2.10;;;24.70;54.50;;;;;;5086105;27;45403;-67
2023/09/17 03:07:48;;;;;;;2.42;2.10;;;24.70;54.50;;;;;;5088833;27;45465;-67
2023/09/17 03:10:18;;;;;;;2.20;2.00;;;24.70;54.50;;;;;;5088417;27;46988;-67
2023/09/17 03:12:46;;;;;;;2.00;1.70;;;24.60;54.50;;;;;;5088486;27;45260;-67
2023/09/17 03:15:12;;;;;;;4.28;2.00;;;24.60;54.50;;;;;;5088589;27;45241;-67
2023/09/17 03:17:40;;;;;;;2.05;1.85;;;24.60;54.40;;;;;;5088726;27;45179;-66
2023/09/17 03:20:16;;;;;;;1.90;1.80;;;24.60;54.40;;;;;;5088483;27;45284;-67
2023/09/17 03:22:43;;;;;;;2.40;2.20;;;24.60;54.40;;;;;;5088232;27;45503;-66
2023/09/17 03:25:11;;;;;;;2.20;2.00;;;24.60;54.40;;;;;;5088390;27;45371;-67
2023/09/17 03:27:39;;;;;;;2.50;2.30;;;24.60;54.40;;;;;;5088393;27;45245;-67
2023/09/17 03:30:08;;;;;;;2.25;2.05;;;24.60;54.40;;;;;;5088044;27;47271;-67
2023/09/17 03:32:34;;;;;;;3.13;2.13;;;24.60;54.40;;;;;;5088122;27;45386;-67
2023/09/17 03:35:01;;;;;;;2.17;1.98;;;24.60;54.30;;;;;;5088195;27;45428;-67
2023/09/17 03:37:28;;;;;;;2.00;1.80;;;24.60;54.30;;;;;;5088457;27;45311;-67
2023/09/17 03:40:10;;;;;;;2.10;1.90;;;24.60;54.30;;;;;;5088035;27;47294;-67
2023/09/17 03:42:37;;;;;;;2.28;1.98;;;24.60;54.30;;;;;;5087687;27;45315;-67
2023/09/17 03:45:06;;;;;;;2.28;2.08;;;24.50;54.20;;;;;;5088219;27;45351;-66
2023/09/17 03:47:33;;;;;;;2.10;1.90;;;24.50;54.20;;;;;;5088359;27;45385;-67
2023/09/17 03:50:00;;;;;;;2.40;2.00;;;24.50;54.20;;;;;;5087681;27;48447;-67
2023/09/17 03:52:27;;;;;;;2.05;1.85;;;24.50;54.20;;;;;;5087622;27;45412;-66
2023/09/17 03:54:54;;;;;;;2.92;1.80;;;24.50;54.20;;;;;;5087995;27;45362;-66
2023/09/17 03:57:20;;;;;;;1.90;1.80;;;24.50;54.20;;;;;;5088206;27;45404;-66
2023/09/17 03:59:47;;;;;;;2.15;1.95;;;24.50;54.20;;;;;;5087598;27;46316;-67
2023/09/17 04:02:17;;;;;;;1.73;1.63;;;24.50;54.20;;;;;;5087661;27;45286;-67
2023/09/17 04:04:44;;;;;;;2.17;1.98;;;24.50;54.80;;;;;;5087817;27;45294;-66
2023/09/17 04:07:11;;;;;;;3.00;2.00;;;24.50;54.20;;;;;;5088023;27;45292;-67
2023/09/17 04:09:38;;;;;;;1.83;1.73;;;24.40;54.20;;;;;;5087391;27;46712;-67
2023/09/17 04:12:05;;;;;;;1.90;1.80;;;24.40;54.10;;;;;;5087491;27;45287;-67
2023/09/17 04:14:32;;;;;;;3.15;2.20;;;24.40;54.20;;;;;;5087498;27;45276;-67
2023/09/17 04:17:00;;;;;;;2.28;2.05;;;24.40;54.30;;;;;;5087337;27;45509;-66
2023/09/17 04:19:28;;;;;;;2.10;1.90;;;24.40;54.30;;;;;;5087640;27;45438;-66
2023/09/17 04:21:55;;;;;;;1.80;1.70;;;24.40;54.30;;;;;;5087399;27;45347;-67
2023/09/17 04:24:22;;;;;;;2.20;2.00;;;24.30;54.20;;;;;;5087486;27;45395;-67
2023/09/17 04:26:52;;;;;;;2.03;1.88;;;24.30;54.20;;;;;;5087559;27;45299;-67
2023/09/17 04:29:19;;;;;;;2.15;1.98;;;24.30;54.20;;;;;;5087218;27;47268;-66
2023/09/17 04:31:46;;;;;;;2.60;2.40;;;24.30;54.10;;;;;;5087250;27;45244;-66
2023/09/17 04:34:13;;;;;;;2.13;1.90;;;24.30;54.10;;;;;;5087235;27;45319;-67
2023/09/17 04:36:41;;;;;;;2.00;1.90;;;24.30;54.10;;;;;;5087430;27;45379;-67
2023/09/17 04:39:09;;;;;;;2.20;2.00;;;24.30;54.10;;;;;;5087033;27;45513;-66
2023/09/17 04:41:36;;;;;;;1.98;1.73;;;24.30;54.10;;;;;;5086845;27;45441;-66
2023/09/17 04:44:07;;;;;;;2.10;1.90;;;24.30;54.10;;;;;;5087074;27;45328;-67
2023/09/17 04:46:34;;;;;;;2.00;1.80;;;24.30;54.10;;;;;;5087280;27;45776;-67
2023/09/17 04:49:01;;;;;;;1.88;1.77;;;24.30;54.10;;;;;;5086825;27;45434;-66
2023/09/17 04:51:28;;;;;;;1.77;1.67;;;24.30;54.10;;;;;;5086913;27;45241;-66
2023/09/17 04:53:57;;;;;;;1.95;1.77;;;24.20;54.10;;;;;;5086899;27;45247;-66
2023/09/17 04:56:24;;;;;;;2.03;1.88;;;24.20;54.00;;;;;;5087055;27;45652;-66
2023/09/17 04:58:51;;;;;;;1.88;1.70;;;24.20;54.00;;;;;;5086719;27;45401;-66
2023/09/17 05:01:17;;;;;;;2.10;1.90;;;24.20;54.10;;;;;;5086765;27;45314;-67
2023/09/17 05:03:46;;;;;;;1.83;1.73;;;24.20;54.00;;;;;;5086774;27;45336;-66
2023/09/17 05:06:13;;;;;;;1.90;1.80;;;24.20;54.10;;;;;;5086897;27;45308;-67
2023/09/17 05:08:39;;;;;;;2.38;1.90;;;24.20;54.10;;;;;;5086818;27;47387;-67
2023/09/17 05:11:08;;;;;;;2.08;1.88;;;24.20;54.00;;;;;;5086579;27;45300;-67
2023/09/17 05:13:34;;;;;;;2.05;1.88;;;24.20;54.00;;;;;;5086727;27;45290;-67
2023/09/17 05:16:02;;;;;;;1.92;1.77;;;24.20;54.60;;;;;;5086662;27;45254;-67
2023/09/17 05:18:28;;;;;;;1.90;1.80;;;24.20;54.00;;;;;;5086448;27;45343;-66
2023/09/17 05:20:55;;;;;;;1.67;1.50;;;24.20;53.90;;;;;;5086447;27;45310;-67
2023/09/17 05:23:22;;;;;;;1.83;1.73;;;24.20;53.90;;;;;;5086293;27;45270;-67
2023/09/17 05:25:49;;;;;;;2.50;1.77;;;24.20;53.90;;;;;;5086710;27;45286;-66
2023/09/17 05:28:17;;;;;;;2.00;1.77;;;24.10;53.80;;;;;;5085274;27;46698;-66
2023/09/17 05:30:44;;;;;;;2.25;2.10;;;24.10;53.90;;;;;;5086145;27;45429;-67
2023/09/17 05:33:10;;;;;;;2.10;1.90;;;24.10;53.90;;;;;;5086210;27;45313;-66
2023/09/17 05:35:37;;;;;;;1.73;1.63;;;24.10;53.90;;;;;;5086713;27;45288;-66
2023/09/17 05:38:04;;;;;;;1.70;1.60;;;24.10;53.80;;;;;;5086131;27;46318;-67
2023/09/17 05:40:31;;;;;;;1.98;1.77;;;24.10;53.80;;;;;;5086115;27;45269;-66
2023/09/17 05:42:58;;;;;;;2.20;1.95;;;24.10;53.80;;;;;;5085976;27;45280;-67
2023/09/17 05:45:27;;;;;;;2.00;1.80;;;24.10;53.80;;;;;;5086178;27;45490;-67
2023/09/17 05:47:53;;;;;;;2.10;1.80;;;24.10;53.80;;;;;;5085862;27;45315;-67
2023/09/17 05:50:21;;;;;;;2.10;1.65;;;24.10;53.80;;;;;;5085996;27;45306;-67
2023/09/17 05:52:47;;;;;;;2.15;1.98;;;24.10;53.80;;;;;;5085949;27;45350;-66
2023/09/17 05:55:14;;;;;;;2.05;1.83;;;24.10;53.80;;;;;;5086189;27;45458;-66
2023/09/17 05:57:42;;;;;;;1.67;1.58;;;24.10;53.80;;;;;;5085902;27;45317;-66
2023/09/17 06:00:10;;;;;;;1.75;1.65;;;24.10;53.80;;;;;;5085984;27;45287;-66
2023/09/17 06:02:39;;;;;;;1.60;1.50;;;24.10;53.70;;;;;;5085889;27;45250;-66
2023/09/17 06:05:06;;;;;;;1.70;1.60;;;24.10;53.70;;;;;;5086063;27;45597;-67
2023/09/17 06:07:34;;;;;;;3.13;1.77;;;24.10;53.70;;;;;;5085778;27;46964;-67
2023/09/17 06:10:01;;;;;;;2.40;1.73;;;24.10;53.70;;;;;;5085810;27;45228;-66
2023/09/17 06:12:28;;;;;;;2.15;1.98;;;24.10;53.70;;;;;;5085810;27;45466;-67
2023/09/17 06:14:54;;;;;;;2.20;2.00;;;24.10;53.60;;;;;;5085994;27;45525;-66
2023/09/17 06:17:21;;;;;;;2.10;1.88;;;24.10;53.60;;;;;;5085596;27;45422;-66
2023/09/17 06:19:49;;;;;;;1.83;1.60;;;24.10;53.60;;;;;;5085633;27;45310;-66
2023/09/17 06:22:16;;;;;;;3.20;1.90;;;24.10;53.60;;;;;;5085570;27;45284;-67
2023/09/17 06:24:43;;;;;;;1.60;1.50;;;24.10;53.60;;;;;;5085946;27;45359;-67
2023/09/17 06:27:10;;;;;;;2.28;2.08;;;24.10;54.20;;;;;;5085381;27;46356;-67
2023/09/17 06:29:37;;;;;;;1.67;1.58;;;24.10;53.60;;;;;;5085492;27;45369;-66
2023/09/17 06:32:04;;;;;;;1.75;1.65;;;24.10;53.60;;;;;;5085647;27;45371;-66
2023/09/17 06:34:31;;;;;;;2.10;1.70;;;24.10;53.60;;;;;;5085997;27;45272;-67
2023/09/17 06:36:59;;;;;;;2.67;1.70;;;24.10;53.50;;;;;;5085462;27;45452;-67
2023/09/17 06:39:26;;;;;;;1.67;1.58;;;24.10;53.50;;;;;;5086563;27;45316;-66
2023/09/17 06:41:53;;;;;;;2.08;1.92;;;24.10;53.50;;;;;;5088652;27;45310;-66
2023/09/17 06:44:20;;;;;;;1.77;1.67;;;24.10;53.50;;;;;;5089150;27;45348;-67
2023/09/17 06:46:46;;;;;;;1.90;1.80;;;24.10;53.50;;;;;;5088733;27;48245;-66
2023/09/17 06:49:13;;;;;;;1.73;1.63;;;24.10;53.50;;;;;;5088991;27;45394;-67
2023/09/17 06:51:40;;;;;;;1.92;1.83;;;24.10;53.40;;;;;;5088997;27;45424;-67
2023/09/17 06:54:08;;;;;;;1.70;1.60;;;24.10;53.40;;;;;;5088923;27;45301;-67
2023/09/17 06:56:35;;;;;;;1.70;1.60;;;24.10;53.40;;;;;;5088674;27;45356;-67
2023/09/17 06:59:02;;;;;;;2.15;1.80;;;24.20;53.40;;;;;;5088979;27;45303;-66
2023/09/17 07:01:30;;;;;;;1.83;1.58;;;24.20;53.40;;;;;;5088617;27;45296;-67
2023/09/17 07:03:57;;;;;;;1.73;1.63;;;24.20;53.40;;;;;;5088806;27;45304;-67
2023/09/17 07:06:24;;;;;;;1.98;1.33;;;24.20;53.40;;;;;;5088404;27;46393;-66
2023/09/17 07:08:52;;;;;;;1.38;1.30;;;24.20;53.20;;;;;;5088416;27;45330;-66
2023/09/17 07:11:20;;;;;;;2.05;1.55;;;24.20;53.50;;;;;;5088558;27;45286;-66
2023/09/17 07:13:47;;;;;;;3.42;1.63;;;24.30;53.20;;;;;;5088858;27;45393;-66
2023/09/17 07:16:15;;;;;;;1.92;1.73;;;24.30;53.20;;;;;;5088319;27;46362;-67
2023/09/17 07:18:42;;;;;;;1.67;1.58;;;24.30;53.10;;;;;;5088428;27;45170;-67
2023/09/17 07:21:09;;;;;;;2.58;1.80;;;24.30;53.20;;;;;;5088512;27;45312;-66
2023/09/17 07:23:36;;;;;;;1.73;1.63;;;24.40;53.20;;;;;;5088546;27;45332;-66
2023/09/17 07:26:03;;;;;;;1.90;1.70;;;24.40;53.20;;;;;;5088177;27;47356;-67
2023/09/17 07:28:32;;;;;;;1.90;1.77;;;24.40;53.20;;;;;;5088238;27;45262;-67
2023/09/17 07:30:58;;;;;;;2.35;1.30;;;24.40;53.90;;;;;;5088453;27;45477;-66
2023/09/17 07:33:25;;;;;;;1.85;1.70;;;24.40;53.20;;;;;;5088448;27;45411;-66
2023/09/17 07:35:52;;;;;;;1.50;1.40;;;24.40;53.30;;;;;;5088094;27;46369;-66
2023/09/17 07:38:19;;;;;;;1.63;1.52;;;24.40;53.50;;;;;;5088116;27;45172;-67
2023/09/17 07:40:47;;;;;;;1.70;1.58;;;24.50;53.30;;;;;;5088079;27;45319;-66
2023/09/17 07:43:14;;;;;;;1.63;1.52;;;24.50;53.30;;;;;;5087956;27;45383;-67
2023/09/17 07:45:42;;;;;;;1.65;1.55;;;24.50;53.40;;;;;;5088103;27;47334;-66
2023/09/17 07:48:09;;;;;;;1.95;1.58;;;24.50;53.40;;;;;;5088000;27;45315;-72
2023/09/17 07:50:36;;;;;;;3.88;1.50;;;24.50;54.60;;;;;;5087441;27;45303;-70
2023/09/17 07:53:04;;;;;;;4.10;1.50;;;24.60;54.10;;;;;;5087886;27;45314;-70
2023/09/17 07:55:30;;;;;;;2.60;1.75;;;24.60;54.60;;;;;;5088174;27;47000;-70
2023/09/17 07:57:57;;;;;;;5.22;1.80;;;24.70;54.40;;;;;;5087416;27;45458;-69
2023/09/17 08:00:24;;;;;;;6.35;1.88;;;24.80;55.70;;;;;;5088044;27;45222;-67
2023/09/17 08:02:53;;;;;;;8.70;2.05;;;24.80;55.00;;;;;;5088314;27;45407;-67
2023/09/17 08:05:20;;;;;;;2.80;1.60;;;24.90;54.50;;;;;;5087825;27;46442;-67
2023/09/17 08:07:47;;;;;;;3.72;1.65;;;24.90;54.20;;;;;;5087544;27;45401;-67
2023/09/17 08:10:14;;;;;;;2.90;1.75;;;25.00;53.80;;;;;;5087819;27;45382;-67
2023/09/17 08:12:40;;;;;;;3.75;1.63;;;25.00;53.50;;;;;;5087619;27;45397;-67
2023/09/17 08:15:08;;;;;;;2.55;1.42;;;25.10;53.60;;;;;;5087260;27;45310;-67
2023/09/17 08:17:35;;;;;;;2.25;1.73;;;25.00;53.50;;;;;;5087578;27;45282;-67
2023/09/17 08:20:04;;;;;;;3.05;1.63;;;25.10;53.60;;;;;;5087424;27;45370;-67
2023/09/17 08:22:32;;;;;;;2.80;1.77;;;25.10;53.60;;;;;;5087558;27;45229;-67
2023/09/17 08:24:59;;;;;;;9.20;1.50;;;25.10;53.70;;;;;;5087338;27;45562;-67
2023/09/17 08:27:26;;;;;;;2.75;1.60;;;25.10;53.90;;;;;;5087234;27;45432;-67
2023/09/17 08:29:53;;;;;;;1.45;1.35;;;25.20;54.00;;;;;;5087457;27;45375;-67
2023/09/17 08:32:19;;;;;;;2.92;1.75;;;25.20;53.70;;;;;;5087439;27;45414;-67
2023/09/17 08:34:46;;;;;;;3.75;1.92;;;25.10;53.50;;;;;;5086921;27;45260;-67
2023/09/17 08:37:14;;;;;;;1.70;1.50;;;25.20;53.50;;;;;;5087052;27;45255;-67
2023/09/17 08:39:42;;;;;;;5.07;1.83;;;25.20;53.50;;;;;;5087473;27;45291;-67
2023/09/17 08:42:09;;;;;;;3.03;1.73;;;25.20;53.40;;;;;;5086838;27;45618;-67
2023/09/17 08:44:36;;;;;;;1.60;1.50;;;25.20;53.30;;;;;;5087086;27;45296;-67
2023/09/17 08:47:03;;;;;;;2.28;1.67;;;25.20;53.20;;;;;;5079946;27;45384;-67
2023/09/17 08:49:30;;;;;;;1.65;1.55;;;25.20;53.10;;;;;;5072942;27;45313;-67
2023/09/17 08:51:57;;;;;;;2.20;2.00;;;25.30;53.20;;;;;;5066895;28;45416;-67
2023/09/17 08:54:29;;;;;;;2.90;1.65;;;25.30;53.10;;;;;;5072994;28;46572;-67
2023/09/17 08:56:56;;;;;;;1.83;1.70;;;25.30;53.10;;;;;;5070246;27;45355;-66
2023/09/17 08:59:25;;;;;;;3.38;1.67;;;25.30;53.10;;;;;;5066650;28;45363;-67
2023/09/17 09:01:52;;;;;;;2.00;1.60;;;25.30;53.10;;;;;;5066456;28;45344;-67
2023/09/17 09:04:19;;;;;;;2.33;1.58;;;25.30;53.00;;;;;;5072721;28;45306;-66
2023/09/17 09:06:46;;;;;;;4.35;1.90;;;25.40;53.00;;;;;;5072008;28;45424;-66
2023/09/17 09:09:13;;;;;;;1.70;1.60;;;25.40;53.00;;;;;;5080891;27;45376;-67
2023/09/17 09:11:41;;;;;;;1.65;1.55;;;25.40;52.90;;;;;;5082898;28;45414;-66
2023/09/17 09:14:08;;;;;;;1.52;1.42;;;25.40;52.80;;;;;;5086126;27;46706;-66
2023/09/17 09:16:36;;;;;;;2.55;1.33;;;25.50;52.70;;;;;;5086278;27;45415;-66
2023/09/17 09:19:03;;;;;;;1.85;1.58;;;25.50;53.30;;;;;;5086626;27;45379;-66
2023/09/17 09:21:30;;;;;;;1.60;1.50;;;25.50;52.80;;;;;;5086805;27;45368;-66
2023/09/17 09:23:58;;;;;;;1.50;1.40;;;25.50;53.40;;;;;;5086185;27;45296;-66
2023/09/17 09:26:35;;;;;;;2.08;1.77;;;25.50;53.60;;;;;;5086369;27;45234;-65
2023/09/17 09:29:04;;;;;;;2.40;1.60;;;25.60;53.90;;;;;;5086512;27;45288;-66
2023/09/17 09:31:31;;;;;;;3.92;1.50;;;25.60;54.30;;;;;;5086429;27;45408;-66
2023/09/17 09:33:59;;;;;;;2.08;1.88;;;25.60;54.00;;;;;;5085979;27;46408;-66
2023/09/17 09:36:27;;;;;;;2.35;1.70;;;25.60;54.20;;;;;;5086228;27;45370;-67
2023/09/17 09:38:54;;;;;;;3.28;1.80;;;25.70;54.40;;;;;;5086292;27;45472;-66
2023/09/17 09:41:21;;;;;;;1.77;1.67;;;25.70;54.40;;;;;;5086327;27;45339;-66
2023/09/17 09:43:48;;;;;;;2.83;1.92;;;25.70;54.40;;;;;;5085642;27;46679;-66
2023/09/17 09:46:16;;;;;;;1.83;1.67;;;25.80;54.50;;;;;;5086151;27;45208;-66
2023/09/17 09:48:43;;;;;;;2.63;1.73;;;25.80;54.60;;;;;;5086010;27;45375;-66
2023/09/17 09:51:10;;;;;;;2.47;1.70;;;25.90;54.60;;;;;;5086496;27;45368;-66
2023/09/17 09:53:37;;;;;;;4.45;1.50;;;25.90;54.50;;;;;;5085523;27;45519;-66
2023/09/17 09:56:04;;;;;;;1.98;1.70;;;25.90;54.50;;;;;;5085903;27;45189;-66
2023/09/17 09:58:31;;;;;;;2.53;1.52;;;26.00;54.40;;;;;;5086188;27;45439;-66
2023/09/17 10:00:59;;;;;;;3.58;1.52;;;26.00;54.30;;;;;;5086026;27;45308;-68
2023/09/17 10:03:27;;;;;;;3.58;1.63;;;26.00;54.30;;;;;;5085441;27;46978;-67
2023/09/17 10:05:54;;;;;;;1.60;1.50;;;26.00;54.40;;;;;;5085993;27;45260;-66
2023/09/17 10:08:21;;;;;;;5.65;1.80;;;26.10;54.20;;;;;;5085665;27;45307;-66
2023/09/17 10:10:48;;;;;;;2.08;1.52;;;26.10;54.30;;;;;;5085907;27;45466;-66
2023/09/17 10:13:15;;;;;;;4.15;1.60;;;26.20;54.00;;;;;;5082717;27;45518;-67
2023/09/17 10:15:42;;;;;;;1.95;1.77;;;26.20;54.10;;;;;;5087232;27;45268;-66
2023/09/17 10:18:12;;;;;;;2.20;1.65;;;26.20;53.80;;;;;;5089330;27;45240;-66
2023/09/17 10:20:42;;;;;;;3.28;1.63;;;26.30;54.00;;;;;;5089488;27;45510;-67
2023/09/17 10:23:09;;;;;;;2.80;1.38;;;26.30;53.80;;;;;;5080396;27;45513;-66
2023/09/17 10:25:36;;;;;;;3.22;1.65;;;26.40;53.80;;;;;;5085484;27;45505;-66
2023/09/17 10:28:03;;;;;;;1.92;1.40;;;26.40;53.60;;;;;;5087097;27;45312;-66
2023/09/17 10:30:30;;;;;;;2.83;1.52;;;26.40;53.50;;;;;;5086928;27;45517;-66
2023/09/17 10:32:57;;;;;;;1.75;1.63;;;26.50;53.50;;;;;;5088732;27;46892;-66
2023/09/17 10:35:24;;;;;;;2.17;1.55;;;26.50;53.50;;;;;;5089180;27;45300;-66
2023/09/17 10:37:52;;;;;;;1.63;1.52;;;26.60;53.30;;;;;;5089031;27;45362;-66
2023/09/17 10:40:19;;;;;;;1.77;1.48;;;26.60;53.20;;;;;;5089407;27;45458;-66
2023/09/17 10:42:46;;;;;;;2.35;1.50;;;26.70;53.20;;;;;;5088414;27;45283;-66
2023/09/17 10:45:13;;;;;;;1.50;1.40;;;26.70;53.10;;;;;;5088913;27;45135;-66
2023/09/17 10:47:40;;;;;;;2.88;1.40;;;26.80;53.00;;;;;;5089020;27;45246;-66
2023/09/17 10:50:07;;;;;;;2.20;1.65;;;26.80;52.90;;;;;;5089109;27;45364;-66
2023/09/17 10:52:35;;;;;;;3.63;1.65;;;26.90;52.90;;;;;;5088551;27;45447;-66
2023/09/17 10:55:07;;;;;;;2.25;1.50;;;26.90;52.80;;;;;;5088631;27;45313;-67
2023/09/17 10:57:36;;;;;;;3.80;1.30;;;27.00;52.70;;;;;;5089170;27;45319;-66
2023/09/17 11:00:05;;;;;;;1.73;1.63;;;27.10;52.60;;;;;;5088921;27;45335;-66
2023/09/17 11:02:31;;;;;;;1.83;1.30;;;27.10;52.40;;;;;;5088370;27;47350;-66
2023/09/17 11:04:58;;;;;;;2.92;1.27;;;27.20;52.30;;;;;;5084773;27;45516;-67
2023/09/17 11:07:26;;;;;;;1.83;1.70;;;27.30;52.40;;;;;;5086878;27;45475;-67
2023/09/17 11:09:52;;;;;;;2.95;1.30;;;27.30;52.40;;;;;;5092961;27;45411;-67
2023/09/17 11:12:23;;;;;;;1.55;1.27;;;27.40;52.30;;;;;;5084902;27;45430;-67
2023/09/17 11:14:50;;;;;;;2.83;1.40;;;27.40;52.20;;;;;;5088323;27;45412;-67
2023/09/17 11:17:18;;;;;;;1.25;1.15;;;27.50;52.10;;;;;;5085195;27;45224;-67
2023/09/17 11:19:45;;;;;;;2.60;1.50;;;27.60;52.00;;;;;;5088396;27;45231;-67
2023/09/17 11:22:13;;;;;;;2.67;1.70;;;27.70;52.00;;;;;;5088340;27;45392;-67
2023/09/17 11:24:40;;;;;;;1.67;1.58;;;27.70;51.90;;;;;;5084065;27;45602;-67
2023/09/17 11:27:08;;;;;;;1.58;1.48;;;27.80;51.90;;;;;;5083460;27;45372;-67
2023/09/17 11:29:40;;;;;;;1.38;1.27;;;27.80;51.80;;;;;;5086131;27;45220;-66
2023/09/17 11:32:07;;;;;;;1.50;1.40;;;27.90;51.70;;;;;;5084043;27;45498;-67
2023/09/17 11:34:35;;;;;;;1.98;1.35;;;27.90;51.40;;;;;;5091842;27;45408;-67
2023/09/17 11:37:03;;;;;;;2.63;1.50;;;28.00;51.60;;;;;;5088214;27;45241;-66
2023/09/17 11:39:30;;;;;;;1.60;1.50;;;28.10;51.10;;;;;;5087962;27;45524;-67
2023/09/17 11:42:03;;;;;;;2.67;1.58;;;28.20;51.10;;;;;;5077824;27;45535;-66
2023/09/17 11:44:30;;;;;;;1.52;1.42;;;28.20;50.80;;;;;;5084197;28;45381;-66
2023/09/17 11:46:58;;;;;;;1.50;1.40;;;28.30;51.00;;;;;;5086413;27;45405;-66
2023/09/17 11:49:25;;;;;;;2.80;1.83;;;28.40;51.10;;;;;;5087808;27;45399;-65
2023/09/17 11:51:54;;;;;;;3.92;1.52;;;28.40;51.50;;;;;;5093805;27;45528;-66
2023/09/17 11:54:24;;;;;;;2.92;1.42;;;28.50;50.80;;;;;;5108105;27;45457;-65
2023/09/17 11:56:53;;;;;;;3.78;1.50;;;28.60;50.90;;;;;;5087407;27;45419;-66
2023/09/17 11:59:20;;;;;;;3.10;1.73;;;28.70;51.00;;;;;;5085532;28;45355;-66
2023/09/17 12:01:47;;;;;;;3.53;1.70;;;28.70;50.60;;;;;;5087132;27;45442;-67
2023/09/17 12:04:16;;;;;;;1.60;1.50;;;28.80;50.70;;;;;;5085147;27;45266;-67
2023/09/17 12:06:44;;;;;;;3.28;1.30;;;28.90;50.60;;;;;;5086437;27;45457;-67
2023/09/17 12:09:16;;;;;;;3.80;1.65;;;28.90;50.40;;;;;;5086522;27;45590;-66
2023/09/17 12:11:45;;;;;;;3.30;1.60;;;29.00;50.20;;;;;;5083407;27;46315;-66
2023/09/17 12:14:12;;;;;;;2.97;1.90;;;29.10;50.10;;;;;;5082799;28;45388;-66
2023/09/17 12:16:39;;;;;;;3.58;1.90;;;29.10;50.10;;;;;;5081661;28;45398;-69
2023/09/17 12:19:06;;;;;;;4.75;1.60;;;29.10;51.10;;;;;;5078248;28;45549;-71
2023/09/17 12:21:38;;;;;;;1.75;1.40;;;29.00;51.40;;;;;;5081167;27;45610;-70
2023/09/17 12:24:08;;;;;;;3.65;1.67;;;29.10;51.10;;;;;;5077183;27;45327;-70
2023/09/17 12:26:46;;;;;;;1.55;1.40;;;29.10;50.90;;;;;;5078151;27;45596;-70
2023/09/17 12:29:13;;;;;;;3.60;1.70;;;29.30;51.20;;;;;;5082924;27;45414;-69
2023/09/17 12:31:40;;;;;;;8.55;2.00;;;29.30;51.00;;;;;;5092470;27;45537;-67
2023/09/17 12:34:07;;;;;;;8.75;1.90;;;29.40;51.90;;;;;;5084757;27;45332;-71
2023/09/17 12:36:36;;;;;;;5.00;1.55;;;29.60;52.10;;;;;;5088191;27;45316;-69
2023/09/17 12:39:03;;;;;;;8.45;2.08;;;29.70;50.70;;;;;;5076212;27;45525;-68
2023/09/17 12:41:29;;;;;;;3.72;1.85;;;29.80;51.00;;;;;;5081187;27;46292;-69
2023/09/17 12:43:56;;;;;;;3.72;1.90;;;29.90;51.40;;;;;;5086053;27;45236;-67
2023/09/17 12:46:23;;;;;;;3.92;1.60;;;30.00;50.30;;;;;;5081465;27;45656;-68
2023/09/17 12:48:51;;;;;;;2.60;1.70;;;30.10;50.30;;;;;;5081137;27;45482;-67